Time;durP1;ratioP1;P1;durP2;ratioP2;P2;SDS_P1;SDS_P2;PMS_P1;PMS_P2;Temp;Humidity;BMP_temperature;BMP_pressure;BME280_temperature;BME280_humidity;BME280_pressure;Samples;Min_cycle;Max_cycle;Signal;HPM_P1;HPM_P2
2022/12/08 00:01:38;;;;;;;33.38;13.88;;;3.00;45.90;;;;;;5052188;28;20055;-76
2022/12/08 00:04:04;;;;;;;31.38;14.10;;;3.00;11.40;;;;;;5051993;28;20442;-76
2022/12/08 00:09:34;;;;;;;32.45;13.45;;;3.10;1.00;;;;;;5052025;28;20385;-74
2022/12/08 00:12:03;;;;;;;28.10;12.82;;;3.10;1.00;;;;;;5051969;28;20021;-76
2022/12/08 00:14:34;;;;;;;28.90;13.50;;;3.20;99.90;;;;;;5051830;28;20452;-76
2022/12/08 00:17:00;;;;;;;30.63;13.00;;;3.20;99.90;;;;;;5051815;28;20047;-76
2022/12/08 00:19:27;;;;;;;26.73;13.60;;;3.20;99.90;;;;;;5051806;28;20021;-75
2022/12/08 00:21:54;;;;;;;28.13;13.60;;;3.30;99.90;;;;;;5052000;28;20021;-75
2022/12/08 00:24:20;;;;;;;27.33;11.82;;;3.30;99.90;;;;;;5051767;28;20049;-76
2022/12/08 00:26:46;;;;;;;29.30;13.60;;;3.40;99.90;;;;;;5051513;28;20095;-75
2022/12/08 00:29:13;;;;;;;31.42;14.02;;;3.40;99.90;;;;;;5051489;28;20029;-76
2022/12/08 00:31:39;;;;;;;26.17;12.45;;;3.40;99.90;;;;;;5051581;28;20108;-76
2022/12/08 00:34:05;;;;;;;31.50;13.80;;;3.40;99.90;;;;;;5051331;28;20112;-76
2022/12/08 00:36:31;;;;;;;31.67;12.50;;;3.40;99.90;;;;;;5051195;28;20029;-76
2022/12/08 00:38:57;;;;;;;27.63;12.63;;;3.40;99.90;;;;;;5051417;28;20028;-76
2022/12/08 00:44:11;;;;;;;27.63;12.27;;;3.40;99.90;;;;;;5051767;28;20027;-76
2022/12/08 00:46:37;;;;;;;24.13;12.73;;;3.30;99.90;;;;;;5051067;28;20029;-75
2022/12/08 00:49:04;;;;;;;29.88;13.10;;;3.30;99.90;;;;;;5051572;28;20020;-76
2022/12/08 00:51:30;;;;;;;26.40;12.68;;;3.30;99.90;;;;;;5051310;28;20035;-76
2022/12/08 00:53:56;;;;;;;30.45;13.15;;;3.30;99.90;;;;;;5051328;28;20021;-75
2022/12/08 00:56:22;;;;;;;28.67;12.23;;;3.30;99.90;;;;;;5051226;28;20025;-76
2022/12/08 00:58:48;;;;;;;25.45;12.90;;;3.30;99.90;;;;;;5050912;28;20032;-77
2022/12/08 01:01:14;;;;;;;29.67;12.43;;;3.20;99.90;;;;;;5051157;28;20021;-75
2022/12/08 01:03:40;;;;;;;23.88;11.32;;;3.10;99.90;;;;;;5049889;28;20036;-76
2022/12/08 01:06:07;;;;;;;25.15;12.30;;;3.10;99.90;;;;;;5050858;28;20098;-76
2022/12/08 01:08:34;;;;;;;21.92;12.43;;;3.10;99.90;;;;;;5051030;28;20059;-75
2022/12/08 01:11:08;;;;;;;20.75;11.13;;;3.10;99.90;;;;;;5051175;28;20032;-75
2022/12/08 01:13:34;;;;;;;23.50;12.20;;;3.10;99.90;;;;;;5051130;28;20022;-76
2022/12/08 01:15:59;;;;;;;27.08;13.60;;;3.10;99.90;;;;;;5049771;28;20031;-76
2022/12/08 01:18:29;;;;;;;29.08;13.02;;;3.10;99.90;;;;;;5050936;28;20473;-77
2022/12/08 01:20:55;;;;;;;25.92;12.27;;;3.00;99.90;;;;;;5051001;28;20068;-75
2022/12/08 01:23:20;;;;;;;25.50;12.02;;;3.00;99.90;;;;;;5050918;28;20102;-76
2022/12/08 01:25:46;;;;;;;23.63;12.27;;;2.90;99.90;;;;;;5050756;28;20468;-75
2022/12/08 01:28:12;;;;;;;26.67;12.23;;;2.90;99.90;;;;;;5050661;28;20025;-75
2022/12/08 01:30:38;;;;;;;21.70;12.15;;;2.80;99.90;;;;;;5050967;28;20457;-76
2022/12/08 01:33:04;;;;;;;24.35;11.88;;;2.80;99.90;;;;;;5049523;28;20460;-76
2022/12/08 01:35:30;;;;;;;26.10;12.80;;;2.70;99.90;;;;;;5050642;28;20096;-75
2022/12/08 01:37:56;;;;;;;25.40;12.25;;;2.70;99.90;;;;;;5050788;28;20473;-76
2022/12/08 01:40:22;;;;;;;25.63;12.52;;;2.70;99.90;;;;;;5050809;28;20033;-76
2022/12/08 01:42:48;;;;;;;22.35;12.05;;;2.70;99.90;;;;;;5050671;28;20035;-74
2022/12/08 01:45:17;;;;;;;23.70;11.48;;;2.70;99.90;;;;;;5050625;28;20048;-75
2022/12/08 01:47:48;;;;;;;33.00;12.15;;;2.70;99.90;;;;;;5050482;28;20086;-74
2022/12/08 01:50:16;;;;;;;22.13;10.98;;;2.80;99.90;;;;;;5050784;28;20052;-75
2022/12/08 01:53:13;;;;;;;27.35;12.25;;;2.80;99.90;;;;;;5051606;28;20053;-76
2022/12/08 01:56:14;;;;;;;24.10;12.00;;;2.80;99.90;;;;;;5053637;28;20102;-76
2022/12/08 01:58:46;;;;;;;26.10;11.27;;;2.80;99.90;;;;;;5054164;28;20558;-75
2022/12/08 02:01:12;;;;;;;22.88;10.90;;;2.80;99.90;;;;;;5054321;28;20031;-76
2022/12/08 02:03:42;;;;;;;22.67;11.43;;;2.70;99.90;;;;;;5054286;28;20396;-75
2022/12/08 02:06:08;;;;;;;30.02;11.95;;;2.70;99.90;;;;;;5052661;28;20402;-76
2022/12/08 02:08:37;;;;;;;23.73;11.35;;;2.70;99.90;;;;;;5054254;28;20428;-76
2022/12/08 02:11:07;;;;;;;21.70;10.23;;;2.60;99.90;;;;;;5054043;28;20108;-75
2022/12/08 02:13:33;;;;;;;21.55;10.82;;;2.70;99.90;;;;;;5054235;28;20013;-76
2022/12/08 02:16:08;;;;;;;22.60;11.73;;;2.70;99.90;;;;;;5053836;28;20385;-76
2022/12/08 02:18:45;;;;;;;30.35;12.00;;;2.60;99.90;;;;;;5054108;28;20079;-76
2022/12/08 02:21:40;;;;;;;28.73;12.80;;;2.40;99.90;;;;;;5054062;28;20029;-77
2022/12/08 02:24:11;;;;;;;26.80;11.82;;;2.30;99.90;;;;;;5053878;28;20485;-76
2022/12/08 02:27:14;;;;;;;27.20;12.65;;;2.20;99.90;;;;;;5053850;28;20071;-75
2022/12/08 02:30:08;;;;;;;27.60;11.85;;;2.00;99.90;;;;;;5053719;28;20036;-76
2022/12/08 02:32:46;;;;;;;28.63;12.02;;;1.80;99.90;;;;;;5053588;28;20049;-75
2022/12/08 02:35:16;;;;;;;25.70;12.23;;;1.70;99.90;;;;;;5053592;28;20377;-75
2022/12/08 02:37:53;;;;;;;28.35;12.75;;;1.70;99.90;;;;;;5053743;28;20049;-76
2022/12/08 02:40:35;;;;;;;29.13;12.77;;;1.70;99.90;;;;;;5053522;28;20097;-77
2022/12/08 02:43:01;;;;;;;;;;;1.60;99.90;;;;;;5053837;28;20145;-74
2022/12/08 02:45:55;;;;;;;26.65;11.68;;;1.60;99.90;;;;;;5053123;28;20422;-75
2022/12/08 02:48:21;;;;;;;24.23;11.38;;;1.50;99.90;;;;;;5053054;28;20045;-74
2022/12/08 02:50:47;;;;;;;29.05;12.90;;;1.50;99.90;;;;;;5053530;28;20031;-76
2022/12/08 02:53:12;;;;;;;24.42;12.60;;;1.70;99.90;;;;;;5053305;28;20025;-75
2022/12/08 02:55:56;;;;;;;29.63;13.00;;;1.70;99.90;;;;;;5053069;28;20650;-76
2022/12/08 02:58:34;;;;;;;28.52;12.80;;;1.60;99.90;;;;;;5053390;28;20032;-75
2022/12/08 03:01:28;;;;;;;36.28;13.43;;;1.50;99.90;;;;;;5053262;28;20021;-77
2022/12/08 03:04:02;;;;;;;26.55;11.93;;;1.40;99.90;;;;;;5053098;28;20071;-76
2022/12/08 03:06:50;;;;;;;33.55;12.27;;;1.50;99.90;;;;;;5052641;28;20405;-76
2022/12/08 03:09:18;;;;;;;25.65;13.60;;;1.60;1.00;;;;;;5053166;28;20489;-78
2022/12/08 03:12:08;;;;;;;29.73;14.32;;;1.60;1.00;;;;;;5053032;28;20021;-75
2022/12/08 03:14:34;;;;;;;30.27;13.65;;;1.70;99.90;;;;;;5053378;28;20040;-75
2022/12/08 03:17:02;;;;;;;27.85;12.38;;;1.70;99.90;;;;;;5052737;28;20029;-76
2022/12/08 03:19:33;;;;;;;25.00;12.05;;;1.70;99.90;;;;;;5053281;28;20025;-76
2022/12/08 03:22:02;;;;;;;27.08;12.23;;;1.60;99.90;;;;;;5052950;28;20031;-76
2022/12/08 03:24:42;;;;;;;24.42;11.65;;;1.60;99.90;;;;;;5052829;28;20384;-76
2022/12/08 03:27:07;;;;;;;22.60;11.98;;;1.70;99.90;;;;;;5052727;28;20041;-75
2022/12/08 03:29:33;;;;;;;26.33;12.63;;;1.70;99.90;;;;;;5052613;28;20032;-76
2022/12/08 03:32:21;;;;;;;31.25;13.52;;;1.70;99.90;;;;;;5052709;28;20435;-76
2022/12/08 03:34:48;;;;;;;29.40;12.30;;;1.70;99.90;;;;;;5052774;28;20040;-76
2022/12/08 03:37:14;;;;;;;25.92;12.70;;;1.60;99.90;;;;;;5052614;28;20047;-75
2022/12/08 03:39:40;;;;;;;26.30;12.38;;;1.60;99.90;;;;;;5052764;28;20031;-75
2022/12/08 03:42:06;;;;;;;21.75;11.48;;;1.50;99.90;;;;;;5052637;28;20103;-75
2022/12/08 03:44:32;;;;;;;24.45;12.23;;;1.40;99.90;;;;;;5052522;28;20021;-76
2022/12/08 03:46:58;;;;;;;26.10;12.35;;;1.40;99.90;;;;;;5052237;28;20036;-77
2022/12/08 03:49:23;;;;;;;24.48;12.13;;;1.40;99.90;;;;;;5051086;28;20021;-75
2022/12/08 03:51:49;;;;;;;28.13;13.57;;;1.40;99.90;;;;;;5052221;28;20056;-74
2022/12/08 03:54:15;;;;;;;31.77;13.27;;;1.40;99.90;;;;;;5052519;28;20677;-74
2022/12/08 03:56:40;;;;;;;27.88;12.25;;;1.30;99.90;;;;;;5052234;28;20320;-74
2022/12/08 03:59:07;;;;;;;22.83;11.07;;;1.30;99.90;;;;;;5050877;28;20032;-76
2022/12/08 04:01:33;;;;;;;25.75;12.43;;;1.20;99.90;;;;;;5052223;28;20033;-75
2022/12/08 04:03:58;;;;;;;26.42;11.63;;;1.20;99.90;;;;;;5051913;28;20382;-75
2022/12/08 04:06:24;;;;;;;26.67;12.75;;;1.10;99.90;;;;;;5051618;28;20049;-75
2022/12/08 04:08:51;;;;;;;30.15;14.48;;;1.10;99.90;;;;;;5052211;28;20307;-76
2022/12/08 04:11:17;;;;;;;22.48;10.30;;;1.10;99.90;;;;;;5052166;28;20025;-76
2022/12/08 04:13:44;;;;;;;26.25;11.82;;;1.10;1.00;;;;;;5051830;28;20051;-75
2022/12/08 04:16:20;;;;;;;29.75;12.68;;;1.20;1.00;;;;;;5051312;28;20036;-76
2022/12/08 04:18:46;;;;;;;23.90;11.90;;;1.20;1.00;;;;;;5051981;28;20035;-76
2022/12/08 04:21:12;;;;;;;24.00;12.38;;;1.30;1.00;;;;;;5051668;28;20108;-75
2022/12/08 04:23:38;;;;;;;26.88;11.75;;;1.20;99.90;;;;;;5051751;28;20021;-75
2022/12/08 04:26:04;;;;;;;23.75;11.65;;;1.20;99.90;;;;;;5051384;28;20036;-75
2022/12/08 04:28:30;;;;;;;24.38;11.65;;;1.20;99.90;;;;;;5051716;28;20104;-76
2022/12/08 04:30:56;;;;;;;21.85;11.27;;;1.30;99.90;;;;;;5051583;28;20524;-76
2022/12/08 04:33:22;;;;;;;24.73;11.23;;;1.20;99.90;;;;;;5050337;28;20033;-75
2022/12/08 04:35:48;;;;;;;28.13;12.07;;;1.20;99.90;;;;;;5051236;28;20674;-75
2022/12/08 04:38:13;;;;;;;26.73;11.18;;;1.10;99.90;;;;;;5051486;28;20053;-76
2022/12/08 04:40:39;;;;;;;23.35;11.20;;;1.00;99.90;;;;;;5051522;28;20036;-76
2022/12/08 04:43:05;;;;;;;30.67;12.68;;;1.00;99.90;;;;;;5051379;28;20055;-76
2022/12/08 04:45:31;;;;;;;24.67;11.95;;;1.00;99.90;;;;;;5049740;28;20028;-77
2022/12/08 04:48:01;;;;;;;23.52;12.07;;;0.90;99.90;;;;;;5051176;28;20527;-76
2022/12/08 04:50:27;;;;;;;34.63;12.35;;;0.80;99.90;;;;;;5051249;28;20061;-75
2022/12/08 04:52:53;;;;;;;28.45;12.70;;;0.80;1.00;;;;;;5051287;28;20063;-74
2022/12/08 04:55:19;;;;;;;30.23;13.32;;;0.80;1.00;;;;;;5050148;28;20017;-77
2022/12/08 04:57:45;;;;;;;24.02;12.73;;;0.80;1.00;;;;;;5050470;28;20132;-76
2022/12/08 05:00:12;;;;;;;30.65;13.48;;;0.80;1.00;;;;;;5049663;28;20071;-76
2022/12/08 05:02:38;;;;;;;31.63;11.90;;;0.80;1.00;;;;;;5050806;28;20029;-76
2022/12/08 05:05:04;;;;;;;28.42;12.68;;;0.80;1.00;;;;;;5051042;28;20029;-76
2022/12/08 05:07:30;;;;;;;27.25;13.43;;;0.80;1.00;;;;;;5050748;28;20056;-75
2022/12/08 05:09:56;;;;;;;27.40;13.48;;;0.90;1.00;;;;;;5050918;28;20517;-76
2022/12/08 05:12:22;;;;;;;23.10;11.43;;;0.70;1.00;;;;;;5050974;28;20509;-77
2022/12/08 05:14:48;;;;;;;22.98;12.23;;;0.60;1.00;;;;;;5050827;28;20021;-75
2022/12/08 05:17:17;;;;;;;23.70;11.13;;;0.50;1.00;;;;;;5050144;28;20036;-77
2022/12/08 05:19:43;;;;;;;21.20;10.68;;;0.40;1.00;;;;;;5039222;28;20021;-75
2022/12/08 05:22:09;;;;;;;24.90;10.77;;;0.30;1.00;;;;;;5041160;28;20017;-77
2022/12/08 05:24:35;;;;;;;21.08;11.07;;;0.30;1.00;;;;;;5040856;28;20018;-77
2022/12/08 05:27:01;;;;;;;24.23;11.45;;;0.50;29.40;;;;;;5034185;28;20036;-77
2022/12/08 05:29:27;;;;;;;23.02;11.07;;;0.50;52.70;;;;;;5035120;28;20033;-77
2022/12/08 05:31:53;;;;;;;26.00;12.43;;;0.60;65.60;;;;;;5034822;28;20034;-75
2022/12/08 05:34:18;;;;;;;22.83;11.98;;;0.70;83.10;;;;;;5034691;28;20025;-77
2022/12/08 05:36:44;;;;;;;31.58;13.02;;;0.70;86.40;;;;;;5043908;28;20028;-76
2022/12/08 05:39:12;;;;;;;27.42;13.20;;;0.70;82.30;;;;;;5045681;28;20030;-76
2022/12/08 05:41:38;;;;;;;23.77;12.05;;;0.70;58.30;;;;;;5042042;28;20025;-77
2022/12/08 05:44:04;;;;;;;28.42;12.52;;;0.60;66.80;;;;;;5034839;28;20045;-76
2022/12/08 05:46:30;;;;;;;30.35;13.68;;;0.60;65.00;;;;;;5034495;28;20041;-76
2022/12/08 05:48:58;;;;;;;30.50;13.02;;;0.70;93.50;;;;;;5034577;28;20046;-77
2022/12/08 05:51:23;;;;;;;28.33;13.18;;;0.70;99.90;;;;;;5034771;28;20052;-76
2022/12/08 05:53:50;;;;;;;28.73;13.05;;;0.80;99.90;;;;;;5034719;28;20025;-76
2022/12/08 05:56:17;;;;;;;25.60;12.90;;;0.80;95.10;;;;;;5034449;28;20490;-78
2022/12/08 05:58:43;;;;;;;31.58;13.00;;;0.90;94.50;;;;;;5034330;28;20024;-77
2022/12/08 06:01:24;;;;;;;31.65;12.57;;;0.80;81.70;;;;;;5034447;28;20064;-77
2022/12/08 06:03:50;;;;;;;24.42;12.68;;;0.90;90.30;;;;;;5034238;28;20028;-78
2022/12/08 06:06:17;;;;;;;26.60;11.90;;;0.90;79.50;;;;;;5034172;28;20053;-77
2022/12/08 06:08:42;;;;;;;27.15;12.73;;;0.90;55.40;;;;;;5034307;28;20067;-77
2022/12/08 06:11:08;;;;;;;32.20;12.52;;;0.90;26.10;;;;;;5034102;28;20124;-77
2022/12/08 06:13:34;;;;;;;29.55;12.43;;;0.90;61.00;;;;;;5034321;28;20029;-78
2022/12/08 06:16:06;;;;;;;26.08;11.88;;;1.00;26.70;;;;;;5034245;28;20017;-76
2022/12/08 06:18:32;;;;;;;;;;;1.00;3.80;;;;;;5034589;28;20025;-77
2022/12/08 06:21:08;;;;;;;25.05;11.13;;;1.00;1.00;;;;;;5033953;28;20317;-76
2022/12/08 06:23:34;;;;;;;27.95;12.85;;;0.90;1.00;;;;;;5034125;28;20028;-79
2022/12/08 06:26:04;;;;;;;29.90;12.05;;;0.90;1.00;;;;;;5033957;28;20030;-78
2022/12/08 06:28:31;;;;;;;31.88;14.32;;;0.80;1.00;;;;;;5034011;28;20104;-78
2022/12/08 06:30:58;;;;;;;28.02;12.82;;;0.80;1.00;;;;;;5033829;28;20022;-78
2022/12/08 06:33:24;;;;;;;23.88;12.20;;;0.80;1.00;;;;;;5032465;28;20028;-80
2022/12/08 06:35:50;;;;;;;36.75;13.43;;;0.80;1.00;;;;;;5033876;28;20639;-80
2022/12/08 06:38:15;;;;;;;27.67;14.90;;;0.70;1.00;;;;;;5033354;28;20025;-80
2022/12/08 06:40:41;;;;;;;30.40;13.38;;;0.70;1.00;;;;;;5033757;28;20064;-78
2022/12/08 06:43:06;;;;;;;26.00;13.13;;;0.70;1.00;;;;;;5033225;28;20022;-78
2022/12/08 06:45:32;;;;;;;22.52;12.60;;;0.60;1.00;;;;;;5033356;28;20030;-80
2022/12/08 06:48:00;;;;;;;29.77;12.73;;;0.50;1.00;;;;;;5034032;28;20032;-80
2022/12/08 06:50:26;;;;;;;31.15;13.57;;;0.60;1.00;;;;;;5034871;28;20034;-77
2022/12/08 06:52:52;;;;;;;29.33;13.73;;;0.50;1.00;;;;;;5033430;28;20018;-80
2022/12/08 06:55:17;;;;;;;26.13;13.18;;;0.50;1.00;;;;;;5033933;28;20367;-79
2022/12/08 06:57:43;;;;;;;27.58;13.25;;;0.40;1.00;;;;;;5053453;28;20052;-79
2022/12/08 07:00:09;;;;;;;28.80;13.77;;;0.40;1.00;;;;;;5053751;28;20675;-79
2022/12/08 07:02:35;;;;;;;28.90;13.43;;;0.50;43.90;;;;;;5053180;28;20036;-80
2022/12/08 07:05:01;;;;;;;29.17;12.88;;;0.70;90.00;;;;;;5048197;28;20017;-80
2022/12/08 07:07:26;;;;;;;29.50;13.82;;;0.80;99.90;;;;;;5033077;28;20052;-80
2022/12/08 07:09:52;;;;;;;30.02;13.77;;;0.80;67.60;;;;;;5031721;28;20481;-80
2022/12/08 07:12:17;;;;;;;31.23;13.60;;;0.80;56.60;;;;;;5032541;28;20018;-80
2022/12/08 07:14:43;;;;;;;21.92;11.85;;;0.70;22.90;;;;;;5032603;28;20064;-80
2022/12/08 07:17:09;;;;;;;24.73;11.93;;;0.80;51.30;;;;;;5033173;28;20040;-80
2022/12/08 07:19:34;;;;;;;26.55;12.85;;;0.80;50.20;;;;;;5033207;28;20532;-82
2022/12/08 07:22:00;;;;;;;26.90;12.50;;;0.70;43.20;;;;;;5032971;28;20075;-80
2022/12/08 07:24:26;;;;;;;27.63;12.05;;;0.70;45.40;;;;;;5033058;28;20026;-81
2022/12/08 07:26:51;;;;;;;27.73;11.85;;;0.70;37.30;;;;;;5032998;28;20119;-80
2022/12/08 07:29:17;;;;;;;30.92;12.98;;;0.70;42.20;;;;;;5033074;28;20025;-81
2022/12/08 07:31:43;;;;;;;27.75;12.70;;;0.70;36.30;;;;;;5033033;28;20029;-81
2022/12/08 07:34:11;;;;;;;27.88;12.43;;;0.60;34.30;;;;;;5031678;28;20038;-82
2022/12/08 07:36:37;;;;;;;27.67;12.00;;;0.60;26.20;;;;;;5033354;28;20018;-75
2022/12/08 07:39:03;;;;;;;31.60;13.38;;;0.60;25.20;;;;;;5032532;28;20075;-76
2022/12/08 07:41:28;;;;;;;24.98;11.88;;;0.60;46.10;;;;;;5032760;28;20022;-74
2022/12/08 07:43:55;;;;;;;30.30;11.60;;;0.60;51.00;;;;;;5032313;28;20075;-75
2022/12/08 07:46:23;;;;;;;24.73;11.93;;;0.60;40.90;;;;;;5032306;28;20037;-75
2022/12/08 07:48:51;;;;;;;27.20;11.55;;;0.60;41.50;;;;;;5041977;28;20029;-73
2022/12/08 07:51:17;;;;;;;28.20;12.50;;;0.70;54.10;;;;;;5049903;28;20056;-75
2022/12/08 07:53:45;;;;;;;24.55;11.18;;;0.70;70.10;;;;;;5052192;28;20023;-75
2022/12/08 07:56:12;;;;;;;26.17;11.55;;;0.70;43.90;;;;;;5051887;28;20052;-73
2022/12/08 07:58:39;;;;;;;29.00;12.75;;;0.70;50.30;;;;;;5051830;28;20113;-74
2022/12/08 08:01:05;;;;;;;30.77;13.85;;;0.80;76.40;;;;;;5051772;28;20029;-75
2022/12/08 08:03:31;;;;;;;26.50;12.30;;;0.80;53.40;;;;;;5052112;28;20017;-72
2022/12/08 08:06:04;;;;;;;26.35;11.45;;;0.80;53.00;;;;;;5051974;28;20055;-75
2022/12/08 08:08:30;;;;;;;32.10;12.05;;;0.90;47.40;;;;;;5051956;28;20477;-73
2022/12/08 08:10:56;;;;;;;25.33;11.48;;;0.90;44.60;;;;;;5043308;28;20112;-75
2022/12/08 08:13:21;;;;;;;30.90;11.82;;;0.90;26.10;;;;;;5031799;28;20375;-73
2022/12/08 08:15:47;;;;;;;23.30;10.77;;;0.90;24.10;;;;;;5045165;28;20036;-74
2022/12/08 08:18:12;;;;;;;25.05;10.88;;;1.00;29.70;;;;;;5051748;28;20465;-74
2022/12/08 08:20:39;;;;;;;24.45;11.48;;;1.00;5.60;;;;;;5049022;28;20021;-75
2022/12/08 08:23:05;;;;;;;24.10;11.43;;;1.00;1.00;;;;;;5035483;28;20144;-74
2022/12/08 08:25:30;;;;;;;26.75;11.82;;;1.10;1.00;;;;;;5030898;28;20108;-74
2022/12/08 08:27:56;;;;;;;22.20;10.45;;;1.20;1.00;;;;;;5042556;28;20094;-75
2022/12/08 08:30:22;;;;;;;24.15;11.35;;;1.20;1.00;;;;;;5045478;28;20037;-74
2022/12/08 08:32:48;;;;;;;24.42;9.98;;;1.30;1.00;;;;;;5033761;28;20104;-74
2022/12/08 08:35:14;;;;;;;22.88;10.73;;;1.40;1.00;;;;;;5036026;28;20022;-73
2022/12/08 08:37:40;;;;;;;29.38;11.88;;;1.40;99.90;;;;;;5031480;28;20036;-75
2022/12/08 08:40:06;;;;;;;19.50;9.80;;;1.40;99.90;;;;;;5031649;28;20025;-74
2022/12/08 08:42:32;;;;;;;21.02;9.93;;;1.50;99.90;;;;;;5031373;28;20044;-74
2022/12/08 08:44:58;;;;;;;22.05;10.50;;;1.50;99.90;;;;;;5031058;28;20025;-73
2022/12/08 08:47:24;;;;;;;21.63;10.68;;;1.40;99.90;;;;;;5030898;28;20501;-75
2022/12/08 08:49:49;;;;;;;25.77;11.43;;;1.50;99.90;;;;;;5031320;28;20059;-74
2022/12/08 08:52:15;;;;;;;27.58;11.38;;;1.50;99.90;;;;;;5031311;28;20027;-73
2022/12/08 08:54:41;;;;;;;24.02;10.63;;;1.60;99.90;;;;;;5029793;28;20022;-74
2022/12/08 08:57:07;;;;;;;21.33;10.23;;;1.70;99.90;;;;;;5031070;28;20040;-74
2022/12/08 08:59:33;;;;;;;18.10;9.93;;;1.70;99.90;;;;;;5031073;28;20018;-75
2022/12/08 09:01:59;;;;;;;19.95;9.82;;;1.70;99.90;;;;;;5030975;28;20029;-74
2022/12/08 09:04:24;;;;;;;22.80;10.95;;;1.80;99.90;;;;;;5030908;28;20048;-74
2022/12/08 09:06:50;;;;;;;23.88;10.60;;;1.80;99.90;;;;;;5030733;28;20089;-75
2022/12/08 09:09:16;;;;;;;24.77;9.93;;;1.90;99.90;;;;;;5030882;28;20037;-75
2022/12/08 09:11:42;;;;;;;23.67;10.20;;;1.90;99.90;;;;;;5031122;28;20071;-74
2022/12/08 09:14:13;;;;;;;20.88;9.43;;;1.90;99.90;;;;;;5031125;28;20104;-74
2022/12/08 09:16:39;;;;;;;27.55;9.85;;;1.90;99.90;;;;;;5030953;28;20104;-73
2022/12/08 09:19:04;;;;;;;18.30;9.38;;;2.00;99.90;;;;;;5030985;28;20108;-74
2022/12/08 09:21:30;;;;;;;22.58;10.38;;;1.90;99.90;;;;;;5031711;28;20152;-73
2022/12/08 09:23:57;;;;;;;19.77;10.27;;;1.90;99.90;;;;;;5031042;28;20108;-73
2022/12/08 09:26:24;;;;;;;16.98;9.48;;;2.00;99.90;;;;;;5030759;28;20041;-74
2022/12/08 09:28:51;;;;;;;17.30;8.35;;;2.00;99.90;;;;;;5029653;28;20055;-76
2022/12/08 09:31:19;;;;;;;20.95;9.13;;;2.00;99.90;;;;;;5030871;28;20044;-74
2022/12/08 09:33:46;;;;;;;19.70;10.30;;;2.10;99.90;;;;;;5031257;28;20029;-74
2022/12/08 09:36:12;;;;;;;17.77;8.88;;;2.10;99.90;;;;;;5032026;28;20096;-72
2022/12/08 09:38:38;;;;;;;20.98;9.02;;;2.20;99.90;;;;;;5035198;28;20033;-73
2022/12/08 09:41:15;;;;;;;20.77;8.98;;;2.20;99.90;;;;;;5038973;28;20021;-74
2022/12/08 09:44:01;;;;;;;30.88;10.30;;;2.20;99.90;;;;;;5053834;28;20037;-71
2022/12/08 09:46:30;;;;;;;15.95;8.70;;;2.20;99.90;;;;;;5034495;28;20128;-71
2022/12/08 09:48:59;;;;;;;24.20;9.07;;;2.20;99.90;;;;;;5033183;28;20029;-72
2022/12/08 09:51:30;;;;;;;22.23;10.48;;;2.20;99.90;;;;;;5037936;28;20052;-72
2022/12/08 09:54:06;;;;;;;21.70;9.95;;;2.20;99.90;;;;;;5030359;28;20060;-72
2022/12/08 09:56:35;;;;;;;15.80;8.07;;;2.20;99.90;;;;;;5030529;28;20470;-71
2022/12/08 09:59:30;;;;;;;19.02;9.38;;;2.30;99.90;;;;;;5030631;28;20044;-71
2022/12/08 10:01:56;;;;;;;18.05;9.20;;;2.30;99.90;;;;;;5033429;28;20021;-71
2022/12/08 10:04:32;;;;;;;16.85;7.63;;;2.40;99.90;;;;;;5030640;28;20364;-72
2022/12/08 10:07:06;;;;;;;16.70;7.43;;;2.50;99.90;;;;;;5030206;28;20111;-72
2022/12/08 10:09:51;;;;;;;14.50;6.72;;;2.70;99.90;;;;;;5032456;28;20040;-72
2022/12/08 10:12:37;;;;;;;14.27;7.90;;;2.80;99.90;;;;;;5048915;28;20036;-72
2022/12/08 10:15:15;;;;;;;16.25;7.40;;;2.90;99.90;;;;;;5046520;28;20025;-72
2022/12/08 10:17:47;;;;;;;14.52;7.95;;;3.00;99.90;;;;;;5053932;28;20036;-73
2022/12/08 10:20:20;;;;;;;18.67;9.15;;;3.10;99.90;;;;;;5050662;28;20025;-71
2022/12/08 10:22:51;;;;;;;19.02;9.60;;;3.10;99.90;;;;;;5053923;28;20049;-73
2022/12/08 10:25:21;;;;;;;17.27;9.13;;;3.10;99.90;;;;;;5041850;28;20087;-73
2022/12/08 10:27:52;;;;;;;18.77;8.93;;;3.00;99.90;;;;;;5045257;28;20045;-75
2022/12/08 10:30:20;;;;;;;20.50;9.98;;;3.10;99.90;;;;;;5052076;28;20029;-72
2022/12/08 10:32:52;;;;;;;21.23;10.10;;;3.10;99.90;;;;;;5053056;28;20052;-72
2022/12/08 10:35:20;;;;;;;17.92;9.15;;;3.10;99.90;;;;;;5053719;28;20032;-72
2022/12/08 10:37:59;;;;;;;17.63;8.80;;;3.10;99.90;;;;;;5049645;28;20036;-72
2022/12/08 10:40:37;;;;;;;20.70;8.77;;;3.10;99.90;;;;;;5042218;28;20029;-72
2022/12/08 10:43:06;;;;;;;19.35;9.23;;;3.10;99.90;;;;;;5044078;28;20376;-72
2022/12/08 10:45:37;;;;;;;19.30;8.57;;;3.20;99.90;;;;;;5034034;28;20025;-72
2022/12/08 10:48:12;;;;;;;15.50;7.07;;;3.20;99.90;;;;;;5033321;28;20063;-72
2022/12/08 10:50:43;;;;;;;14.32;7.25;;;3.30;99.90;;;;;;5044689;28;20033;-72
2022/12/08 10:53:13;;;;;;;14.00;7.88;;;3.40;99.90;;;;;;5033427;28;20024;-72
2022/12/08 10:55:46;;;;;;;13.80;7.13;;;3.40;99.90;;;;;;5033292;28;20501;-71
2022/12/08 10:58:31;;;;;;;14.27;7.65;;;3.50;99.90;;;;;;5033376;28;20029;-72
2022/12/08 11:01:05;;;;;;;14.98;7.50;;;3.50;99.90;;;;;;5035426;28;20047;-72
2022/12/08 11:03:51;;;;;;;18.52;7.70;;;3.50;99.90;;;;;;5039512;28;20069;-71
2022/12/08 11:06:28;;;;;;;14.00;7.80;;;3.60;99.90;;;;;;5041607;28;20519;-72
2022/12/08 11:08:56;;;;;;;13.48;8.23;;;3.70;99.90;;;;;;5047940;28;20100;-71
2022/12/08 11:11:48;;;;;;;19.42;8.60;;;3.70;99.90;;;;;;5033007;28;20425;-71
2022/12/08 11:14:35;;;;;;;18.58;8.52;;;3.70;99.90;;;;;;5032877;28;20418;-72
2022/12/08 11:17:16;;;;;;;14.05;7.90;;;3.70;99.90;;;;;;5032571;28;20040;-71
2022/12/08 11:20:01;;;;;;;19.98;8.52;;;3.80;99.90;;;;;;5051346;28;20025;-71
2022/12/08 11:22:38;;;;;;;17.63;8.77;;;3.80;99.90;;;;;;5051336;28;20056;-72
2022/12/08 11:25:06;;;;;;;17.70;8.95;;;3.90;99.90;;;;;;5043847;28;20105;-71
2022/12/08 11:27:35;;;;;;;11.45;6.55;;;3.90;99.90;;;;;;5042380;28;20044;-71
2022/12/08 11:30:05;;;;;;;15.25;7.25;;;4.00;99.90;;;;;;5050963;28;20131;-72
2022/12/08 11:32:31;;;;;;;17.92;7.35;;;4.20;99.90;;;;;;5052486;28;20021;-71
2022/12/08 11:35:06;;;;;;;16.92;8.00;;;4.40;99.90;;;;;;5045302;28;20021;-71
2022/12/08 11:37:40;;;;;;;19.23;7.45;;;4.40;99.90;;;;;;5032802;28;20057;-70
2022/12/08 11:40:15;;;;;;;14.35;8.20;;;4.40;99.90;;;;;;5035229;28;20080;-71
2022/12/08 11:42:53;;;;;;;15.25;8.73;;;4.40;99.90;;;;;;5031262;28;20469;-70
2022/12/08 11:45:25;;;;;;;17.83;7.85;;;4.50;99.90;;;;;;5033899;28;20052;-73
2022/12/08 11:48:15;;;;;;;13.82;7.03;;;4.60;99.90;;;;;;5030919;28;20033;-73
2022/12/08 11:50:46;;;;;;;17.98;8.43;;;4.60;99.90;;;;;;5032209;28;20025;-73
2022/12/08 11:53:30;;;;;;;14.75;7.35;;;4.80;99.90;;;;;;5031717;28;20104;-72
2022/12/08 11:56:14;;;;;;;14.50;7.80;;;5.10;99.90;;;;;;5035744;28;20042;-73
2022/12/08 11:59:21;;;;;;;11.43;6.45;;;5.50;99.90;;;;;;5064428;28;20597;-74
2022/12/08 12:01:47;;;;;;;13.02;7.05;;;6.00;99.90;;;;;;5046572;28;20125;-72
2022/12/08 12:04:27;;;;;;;16.38;7.32;;;6.30;99.90;;;;;;5064933;28;20060;-72
2022/12/08 12:07:18;;;;;;;17.10;7.38;;;6.30;99.90;;;;;;5058727;28;20459;-73
2022/12/08 12:09:55;;;;;;;14.45;6.97;;;6.40;99.90;;;;;;5046556;28;20033;-73
2022/12/08 12:12:50;;;;;;;14.55;6.80;;;6.50;99.90;;;;;;5039784;28;20056;-74
2022/12/08 12:15:31;;;;;;;13.65;7.22;;;6.60;99.90;;;;;;5048938;28;20741;-74
2022/12/08 12:18:10;;;;;;;13.43;7.40;;;6.90;99.90;;;;;;5055706;28;20051;-75
2022/12/08 12:20:49;;;;;;;14.45;7.47;;;7.20;99.90;;;;;;5042208;28;20121;-75
2022/12/08 12:23:56;;;;;;;14.70;8.57;;;7.60;99.90;;;;;;5054742;28;20021;-75
2022/12/08 12:26:36;;;;;;;12.65;6.82;;;8.30;99.90;;;;;;5057284;28;20397;-73
2022/12/08 12:29:17;;;;;;;18.10;8.50;;;9.30;99.90;;;;;;5059388;28;20461;-73
2022/12/08 12:31:48;;;;;;;11.30;6.80;;;10.30;99.90;;;;;;5039498;28;20025;-72
2022/12/08 12:34:22;;;;;;;11.10;7.80;;;11.00;99.90;;;;;;5038594;28;20387;-72
2022/12/08 12:36:55;;;;;;;13.38;6.93;;;11.20;99.90;;;;;;5033542;28;20040;-71
2022/12/08 12:39:27;;;;;;;12.18;7.32;;;11.50;99.90;;;;;;5063343;28;20043;-72
2022/12/08 12:41:57;;;;;;;21.67;8.25;;;11.70;99.90;;;;;;5054344;28;20079;-71
2022/12/08 12:44:27;;;;;;;11.80;7.00;;;11.90;99.90;;;;;;5064976;28;20021;-70
2022/12/08 12:46:55;;;;;;;18.67;7.57;;;11.70;99.90;;;;;;5046073;28;20044;-72
2022/12/08 12:49:39;;;;;;;10.30;6.70;;;11.30;99.90;;;;;;5037529;28;20064;-71
2022/12/08 12:52:22;;;;;;;12.70;8.18;;;11.30;99.90;;;;;;5039212;28;20033;-72
2022/12/08 12:54:51;;;;;;;11.45;6.78;;;11.50;99.90;;;;;;5031037;28;20330;-72
2022/12/08 12:57:20;;;;;;;13.70;7.25;;;11.50;99.90;;;;;;5029887;28;20028;-71
2022/12/08 13:00:05;;;;;;;12.10;7.40;;;11.80;99.90;;;;;;5031144;28;20025;-70
2022/12/08 13:02:43;;;;;;;11.93;6.97;;;12.10;99.90;;;;;;5032740;28;20021;-71